createdAt,value
2018-08-24T00:01:18.976Z,5.50
2018-08-24T00:02:18.973Z,5.20
2018-08-24T00:04:11.918Z,6.30
2018-08-24T00:05:11.916Z,6.70
2018-08-24T00:07:04.845Z,7.80
2018-08-24T00:08:04.859Z,6.20
2018-08-24T00:09:57.809Z,6.20
2018-08-24T00:10:57.808Z,6.90
2018-08-24T00:12:50.734Z,6.70
2018-08-24T00:13:50.750Z,6.70
2018-08-24T00:15:43.700Z,6.70
2018-08-24T00:16:43.697Z,7.10
2018-08-24T00:18:36.632Z,7.10
2018-08-24T00:19:36.645Z,7.30
2018-08-24T00:21:29.594Z,6.60
2018-08-24T00:22:29.590Z,7.50
2018-08-24T00:24:22.541Z,7.60
2018-08-24T00:25:22.534Z,7.00
2018-08-24T00:27:15.463Z,7.50
2018-08-24T00:28:15.478Z,8.50
2018-08-24T00:30:08.429Z,8.20
2018-08-24T00:31:08.423Z,8.60
2018-08-24T00:33:01.354Z,8.80
2018-08-24T00:34:01.372Z,8.70
2018-08-24T00:35:54.320Z,8.80
2018-08-24T00:36:54.314Z,10.00
2018-08-24T00:38:47.249Z,8.80
2018-08-24T00:39:47.259Z,8.90
2018-08-24T00:41:40.214Z,9.40
2018-08-24T00:42:40.221Z,9.20
2018-08-24T00:44:33.157Z,9.60
2018-08-24T00:45:33.150Z,9.10
2018-08-24T00:47:26.080Z,9.90
2018-08-24T00:48:26.092Z,9.10
2018-08-24T00:50:19.057Z,8.60
2018-08-24T00:51:19.053Z,9.70
2018-08-24T00:53:11.989Z,9.20
2018-08-24T00:54:12.040Z,12.50
2018-08-24T00:56:04.974Z,10.70
2018-08-24T00:57:04.959Z,10.40
2018-08-24T00:58:57.889Z,11.10
2018-08-24T00:59:57.907Z,10.80
2018-08-24T01:01:50.870Z,11.70
2018-08-24T01:02:50.869Z,11.20
2018-08-24T01:04:43.813Z,11.50
2018-08-24T01:05:43.805Z,12.00
2018-08-24T01:07:36.770Z,12.80
2018-08-24T01:08:36.751Z,11.90
2018-08-24T01:10:29.694Z,12.80
2018-08-24T01:11:29.687Z,12.40
2018-08-24T01:13:22.620Z,11.80
2018-08-24T01:14:22.641Z,12.40
2018-08-24T01:16:15.587Z,11.60
2018-08-24T01:17:15.583Z,14.20
2018-08-24T01:19:08.515Z,12.50
2018-08-24T01:20:08.524Z,12.30
2018-08-24T01:22:01.480Z,12.70
2018-08-24T01:23:01.474Z,12.80
2018-08-24T01:24:54.425Z,12.80
2018-08-24T01:25:54.418Z,12.90
2018-08-24T01:27:47.356Z,15.30
2018-08-24T01:28:47.368Z,13.80
2018-08-24T01:30:40.316Z,14.30
2018-08-24T01:31:40.313Z,15.10
2018-08-24T01:33:33.239Z,14.50
2018-08-24T01:34:33.252Z,14.10
2018-08-24T01:36:26.206Z,15.50
2018-08-24T01:37:26.191Z,15.60
2018-08-24T01:39:19.119Z,15.00
2018-08-24T01:40:19.136Z,14.80
2018-08-24T01:42:12.080Z,14.70
2018-08-24T01:43:12.075Z,15.90
2018-08-24T01:45:05.027Z,14.70
2018-08-24T01:46:05.028Z,16.40
2018-08-24T01:47:57.950Z,14.00
2018-08-24T01:48:57.960Z,15.90
2018-08-24T01:50:50.910Z,15.00
2018-08-24T01:51:50.904Z,15.90
2018-08-24T01:53:43.831Z,16.10
2018-08-24T02:24:14.591Z,19.60
2018-08-24T02:25:14.580Z,22.50
2018-08-24T02:27:07.509Z,23.20
2018-08-24T02:28:07.498Z,23.40
2018-08-24T02:30:00.430Z,25.10
2018-08-24T02:31:00.442Z,24.60
2018-08-24T02:32:53.369Z,20.70
2018-08-24T02:33:53.360Z,24.10
2018-08-24T02:35:46.289Z,21.80
2018-08-24T02:36:46.298Z,23.20
2018-08-24T02:38:39.244Z,21.30
2018-08-24T02:39:39.231Z,19.40
2018-08-24T02:41:32.178Z,19.00
2018-08-24T02:42:32.168Z,18.00
2018-08-24T02:44:25.096Z,16.70
2018-08-24T02:45:25.107Z,15.40
2018-08-24T02:47:18.058Z,14.30
2018-08-24T02:48:18.050Z,14.10
2018-08-24T02:50:10.975Z,10.80
2018-08-24T02:51:10.982Z,11.40
2018-08-24T02:53:03.929Z,10.60
2018-08-24T02:54:03.920Z,13.10
2018-08-24T02:55:56.848Z,10.70
2018-08-24T02:56:56.857Z,10.30
2018-08-24T02:58:49.804Z,10.70
2018-08-24T02:59:49.803Z,10.00
2018-08-24T03:01:42.746Z,9.40
2018-08-24T03:02:42.745Z,9.60
2018-08-24T03:04:35.666Z,12.20
2018-08-24T03:05:35.831Z,11.00
2018-08-24T03:07:28.627Z,9.40
2018-08-24T03:08:28.619Z,9.20
2018-08-24T03:10:21.557Z,9.60
2018-08-24T03:11:21.573Z,12.00
2018-08-24T03:13:14.529Z,9.80
2018-08-24T03:14:14.518Z,9.20
2018-08-24T03:16:07.499Z,9.20
2018-08-24T03:17:07.453Z,10.00
2018-08-24T03:19:00.403Z,8.80
2018-08-24T03:20:00.396Z,9.00
2018-08-24T03:21:53.344Z,9.40
2018-08-24T03:22:53.335Z,8.40
2018-08-24T03:24:46.276Z,8.80
2018-08-24T03:25:46.290Z,8.80
2018-08-24T03:27:39.230Z,7.50
2018-08-24T03:28:39.222Z,8.60
2018-08-24T03:30:32.148Z,8.20
2018-08-24T03:31:32.167Z,9.70
2018-08-24T03:33:25.108Z,8.80
2018-08-24T03:34:25.101Z,8.90
2018-08-24T03:36:18.026Z,7.90
2018-08-24T03:37:18.042Z,9.80
2018-08-24T03:39:10.986Z,9.30
2018-08-24T03:40:10.986Z,9.60
2018-08-24T03:42:03.934Z,9.60
2018-08-24T03:43:03.936Z,9.10
2018-08-24T03:44:56.869Z,10.90
2018-08-24T03:45:56.945Z,11.90
2018-08-24T03:47:49.828Z,13.90
2018-08-24T03:48:49.816Z,11.70
2018-08-24T03:50:42.740Z,11.40
2018-08-24T03:51:42.754Z,10.30
2018-08-24T03:53:35.727Z,13.40
2018-08-24T03:54:35.695Z,12.40
2018-08-24T03:56:28.625Z,12.70
2018-08-24T03:57:28.641Z,13.70
2018-08-24T03:59:21.587Z,11.90
2018-08-24T04:00:21.578Z,15.80
2018-08-24T04:02:14.528Z,11.10
2018-08-24T04:03:14.528Z,12.40
2018-08-24T04:05:07.451Z,12.10
2018-08-24T04:06:07.469Z,12.90
2018-08-24T04:08:00.419Z,16.20
2018-08-24T04:09:00.405Z,12.10
2018-08-24T04:10:53.331Z,14.70
2018-08-24T04:11:53.347Z,13.60
2018-08-24T04:13:46.297Z,13.00
2018-08-24T04:14:46.288Z,13.50
2018-08-24T04:16:39.220Z,12.20
2018-08-24T04:17:39.234Z,12.80
2018-08-24T04:19:32.250Z,13.10
2018-08-24T04:20:32.178Z,14.60
2018-08-24T04:22:25.124Z,15.40
2018-08-24T04:23:25.120Z,12.80
2018-08-24T04:25:18.041Z,14.80
2018-08-24T04:26:18.061Z,14.70
2018-08-24T04:28:11.004Z,16.30
2018-08-24T04:29:10.999Z,15.40
2018-08-24T04:31:03.933Z,14.30
2018-08-24T04:32:03.943Z,12.70
2018-08-24T04:33:56.899Z,14.60
2018-08-24T04:34:56.946Z,15.60
2018-08-24T04:36:49.818Z,14.80
2018-08-24T04:37:49.832Z,17.30
2018-08-24T04:39:42.782Z,14.50
2018-08-24T04:40:42.775Z,15.60
2018-08-24T04:42:35.728Z,14.70
2018-08-24T04:43:35.718Z,17.00
2018-08-24T04:45:28.651Z,16.70
2018-08-24T04:46:28.659Z,16.30
2018-08-24T04:48:21.611Z,15.50
2018-08-24T04:49:21.600Z,15.70
2018-08-24T04:51:14.530Z,16.20
2018-08-24T04:52:14.537Z,16.70
2018-08-24T04:54:07.491Z,17.60
2018-08-24T04:55:07.480Z,15.30
2018-08-24T04:57:00.411Z,14.30
2018-08-24T04:58:00.474Z,15.70
2018-08-24T04:59:53.372Z,18.20
2018-08-24T05:00:53.362Z,15.80
2018-08-24T05:02:46.326Z,15.60
2018-08-24T05:03:46.323Z,14.30
2018-08-24T05:05:39.282Z,17.40
2018-08-24T05:06:39.266Z,14.00
2018-08-24T05:08:32.215Z,16.20
2018-08-24T05:09:32.203Z,15.10
2018-08-24T05:11:25.137Z,16.80
2018-08-24T05:12:25.151Z,14.60
2018-08-24T05:14:18.099Z,16.70
2018-08-24T05:15:18.101Z,15.90
2018-08-24T05:17:11.019Z,15.90
2018-08-24T05:18:11.036Z,16.90
2018-08-24T05:20:03.980Z,17.40
2018-08-24T05:21:03.982Z,19.80
2018-08-24T05:22:56.926Z,15.80
2018-08-24T05:23:56.922Z,16.60
2018-08-24T05:25:49.852Z,18.90
2018-08-24T05:26:49.861Z,15.30
2018-08-24T05:28:42.817Z,16.10
2018-08-24T05:29:42.805Z,17.60
2018-08-24T05:31:35.731Z,16.80
2018-08-24T05:32:35.752Z,18.20
2018-08-24T05:34:28.715Z,17.60
2018-08-24T05:35:28.712Z,17.30
2018-08-24T05:37:21.636Z,16.20
2018-08-24T05:38:21.649Z,16.90
2018-08-24T05:40:14.596Z,17.90
2018-08-24T05:41:14.609Z,16.80
2018-08-24T05:43:07.532Z,15.90
2018-08-24T05:44:07.528Z,17.40
2018-08-24T05:46:00.455Z,17.70
2018-08-24T05:47:00.471Z,17.90
2018-08-24T05:48:53.481Z,15.10
2018-08-24T05:49:53.418Z,18.00
2018-08-24T05:51:46.341Z,17.30
2018-08-24T05:52:46.357Z,16.70
2018-08-24T05:54:39.302Z,20.60
2018-08-24T05:55:39.306Z,16.60
2018-08-24T05:57:32.225Z,18.80
2018-08-24T05:58:32.269Z,18.10
2018-08-24T06:00:25.180Z,15.80
2018-08-24T06:01:25.178Z,17.40
2018-08-24T06:03:18.128Z,16.30
2018-08-24T06:04:18.123Z,17.90
2018-08-24T06:06:11.079Z,15.70
2018-08-24T06:07:11.071Z,18.90
2018-08-24T06:09:04.025Z,16.90
2018-08-24T06:10:04.020Z,19.70
2018-08-24T06:11:56.941Z,19.40
2018-08-24T06:12:56.958Z,18.80
2018-08-24T06:14:49.907Z,16.60
2018-08-24T06:15:49.924Z,17.80
2018-08-24T06:17:42.831Z,20.40
2018-08-24T06:18:42.848Z,18.00
2018-08-24T06:20:35.795Z,18.50
2018-08-24T06:21:35.786Z,19.00
2018-08-24T06:23:28.751Z,18.90
2018-08-24T06:24:28.770Z,16.20
2018-08-24T06:26:21.656Z,16.40
2018-08-24T06:27:21.672Z,15.80
2018-08-24T06:29:14.625Z,20.30
2018-08-24T06:30:14.619Z,17.70
2018-08-24T06:32:07.546Z,19.30
2018-08-24T06:33:07.561Z,19.90
2018-08-24T06:35:00.515Z,21.60
2018-08-24T06:36:00.506Z,20.30
2018-08-24T06:37:53.432Z,18.30
2018-08-24T06:38:53.445Z,18.00
2018-08-24T06:40:46.395Z,17.50
2018-08-24T06:41:46.448Z,18.30
2018-08-24T06:43:39.353Z,18.30
2018-08-24T06:44:39.333Z,20.80
2018-08-24T06:46:32.262Z,19.90
2018-08-24T06:47:32.281Z,17.70
2018-08-24T06:49:25.227Z,19.00
2018-08-24T06:50:25.233Z,18.30
2018-08-24T06:52:18.145Z,20.20
2018-08-24T06:53:18.278Z,18.90
2018-08-24T06:55:11.108Z,15.50
2018-08-24T06:56:11.100Z,19.10
2018-08-24T06:58:04.028Z,18.10
2018-08-24T06:59:04.042Z,20.00
2018-08-24T07:00:56.990Z,18.70
2018-08-24T07:01:56.988Z,16.80
2018-08-24T07:03:49.930Z,21.60
2018-08-24T07:04:49.938Z,19.40
2018-08-24T07:06:42.889Z,22.00
2018-08-24T07:07:42.882Z,18.10
2018-08-24T07:09:35.831Z,21.00
2018-08-24T07:10:35.828Z,22.50
2018-08-24T07:12:28.750Z,23.20
2018-08-24T07:13:28.765Z,19.60
2018-08-24T07:15:21.718Z,19.30
2018-08-24T07:16:21.710Z,22.70
2018-08-24T07:18:14.641Z,21.30
2018-08-24T07:19:14.659Z,18.20
2018-08-24T07:21:07.600Z,22.60
2018-08-24T07:22:07.597Z,19.50
2018-08-24T07:24:00.525Z,19.50
2018-08-24T07:25:00.541Z,17.30
2018-08-24T07:26:53.483Z,19.10
2018-08-24T07:27:53.479Z,17.00
2018-08-24T07:29:46.431Z,18.00
2018-08-24T07:30:46.429Z,17.10
2018-08-24T07:32:39.359Z,18.90
2018-08-24T07:33:39.370Z,18.10
2018-08-24T07:35:32.324Z,18.00
2018-08-24T07:36:32.314Z,17.40
2018-08-24T07:38:25.252Z,16.30
2018-08-24T07:39:25.261Z,13.80
2018-08-24T07:41:18.265Z,13.00
2018-08-24T07:42:18.207Z,14.30
2018-08-24T07:44:11.140Z,14.00
2018-08-24T07:45:11.156Z,13.00
2018-08-24T07:47:04.102Z,11.80
2018-08-24T07:48:04.095Z,10.30
2018-08-24T07:49:57.044Z,12.90
2018-08-24T07:50:57.189Z,11.50
2018-08-24T07:52:49.994Z,13.40
2018-08-24T07:53:49.985Z,13.40
2018-08-24T07:55:42.935Z,11.50
2018-08-24T07:56:42.925Z,10.90
2018-08-24T07:58:35.851Z,13.40
2018-08-24T07:59:35.865Z,10.70
2018-08-24T08:01:28.827Z,11.00
2018-08-24T08:02:28.820Z,10.50
2018-08-24T08:04:21.750Z,10.40
2018-08-24T08:05:21.771Z,12.70
2018-08-24T08:07:14.712Z,9.00
2018-08-24T08:08:14.712Z,11.00
2018-08-24T08:10:07.662Z,10.10
2018-08-24T08:11:07.654Z,11.40
2018-08-24T08:13:00.590Z,9.90
2018-08-24T08:14:00.597Z,9.70
2018-08-24T08:15:53.554Z,11.20
2018-08-24T08:16:53.557Z,9.20
2018-08-24T08:18:46.482Z,10.80
2018-08-24T08:19:46.505Z,11.40
2018-08-24T08:21:39.450Z,8.60
2018-08-24T08:22:39.447Z,10.60
2018-08-24T08:24:32.416Z,7.00
2018-08-24T08:25:32.392Z,8.70
2018-08-24T08:27:25.340Z,5.90
2018-08-24T08:28:25.341Z,8.60
2018-08-24T08:30:18.290Z,8.10
2018-08-24T08:31:18.284Z,6.60
2018-08-24T08:33:11.216Z,6.70
2018-08-24T08:34:11.258Z,9.80
2018-08-24T08:36:04.187Z,8.50
2018-08-24T08:37:04.177Z,7.10
2018-08-24T08:38:57.158Z,7.70
2018-08-24T08:39:57.125Z,8.20
2018-08-24T08:41:50.076Z,7.70
2018-08-24T08:42:50.073Z,9.00
2018-08-24T08:44:43.011Z,11.10
2018-08-24T08:45:43.017Z,8.80
2018-08-24T08:47:35.967Z,8.60
2018-08-24T08:48:35.967Z,8.00
2018-08-24T08:50:28.913Z,8.20
2018-08-24T08:51:28.905Z,9.60
2018-08-24T08:53:21.887Z,10.40
2018-08-24T08:54:21.856Z,8.50
2018-08-24T08:56:14.842Z,9.20
2018-08-24T08:57:14.843Z,8.70
2018-08-24T08:59:07.743Z,9.00
2018-08-24T09:00:07.759Z,8.10
2018-08-24T09:02:00.710Z,8.70
2018-08-24T09:03:00.707Z,8.10
2018-08-24T09:04:53.629Z,5.80
2018-08-24T09:05:53.679Z,7.20
2018-08-24T09:07:46.602Z,7.10
2018-08-24T09:08:46.602Z,8.00
2018-08-24T09:10:39.555Z,5.50
2018-08-24T09:11:39.547Z,7.30
2018-08-24T09:13:32.476Z,6.90
2018-08-24T09:14:32.494Z,7.50
2018-08-24T09:16:25.450Z,6.70
2018-08-24T09:17:25.450Z,5.30
2018-08-24T09:19:18.375Z,7.50
2018-08-24T09:20:18.392Z,7.30
2018-08-24T09:22:11.347Z,6.70
2018-08-24T09:23:11.345Z,6.90
2018-08-24T09:25:04.286Z,6.00
2018-08-24T09:26:04.298Z,7.50
2018-08-24T09:27:57.251Z,4.30
2018-08-24T09:28:57.251Z,5.60
2018-08-24T09:30:50.183Z,5.30
2018-08-24T09:31:50.199Z,8.30
2018-08-24T09:33:43.148Z,5.10
2018-08-24T09:34:43.143Z,9.90
2018-08-24T09:36:36.094Z,7.10
2018-08-24T09:37:36.090Z,8.20
2018-08-24T09:39:29.023Z,5.30
2018-08-24T09:40:29.040Z,5.00
2018-08-24T09:42:21.998Z,6.50
2018-08-24T09:43:21.996Z,8.60
2018-08-24T09:45:14.927Z,4.10
2018-08-24T09:46:14.942Z,6.00
2018-08-24T09:48:07.901Z,3.70
2018-08-24T09:49:07.926Z,5.70
2018-08-24T09:51:00.828Z,6.80
2018-08-24T09:52:00.846Z,8.40
2018-08-24T09:53:53.799Z,4.30
2018-08-24T09:54:53.789Z,5.50
2018-08-24T09:56:46.797Z,5.60
2018-08-24T09:57:46.750Z,7.40
2018-08-24T09:59:39.675Z,6.60
2018-08-24T10:00:39.693Z,5.50
2018-08-24T10:02:32.657Z,7.30
2018-08-24T10:03:32.654Z,7.60
2018-08-24T10:05:25.587Z,6.50
2018-08-24T10:06:25.618Z,7.60
2018-08-24T10:08:18.543Z,5.10
2018-08-24T10:09:18.542Z,5.20
2018-08-24T10:11:11.486Z,7.00
2018-08-24T10:12:11.503Z,4.70
2018-08-24T10:14:04.455Z,4.80
2018-08-24T10:15:04.453Z,6.20
2018-08-24T10:16:57.410Z,5.70
2018-08-24T10:17:57.410Z,4.40
2018-08-24T10:19:50.332Z,5.00
2018-08-24T10:20:50.348Z,6.10
2018-08-24T10:22:43.302Z,5.90
2018-08-24T10:23:43.302Z,5.90
2018-08-24T10:25:36.232Z,4.90
2018-08-24T10:26:36.243Z,7.10
2018-08-24T10:28:29.196Z,6.20
2018-08-24T10:29:29.308Z,6.40
2018-08-24T10:31:22.128Z,6.70
2018-08-24T10:32:22.143Z,4.90
2018-08-24T10:34:15.100Z,4.80
2018-08-24T10:35:15.101Z,4.70
2018-08-24T10:37:08.049Z,6.30
2018-08-24T10:38:08.047Z,6.00
2018-08-24T10:40:00.984Z,4.90
2018-08-24T10:41:01.089Z,6.60
2018-08-24T10:42:53.957Z,5.40
2018-08-24T10:43:53.952Z,4.50
2018-08-24T10:45:46.887Z,5.60
2018-08-24T10:46:46.898Z,4.80
2018-08-24T10:48:39.849Z,4.30
2018-08-24T10:49:39.849Z,4.70
2018-08-24T10:51:32.813Z,6.20
2018-08-24T10:52:32.807Z,5.30
2018-08-24T10:54:25.773Z,6.80
2018-08-24T10:55:25.788Z,3.90
2018-08-24T10:57:18.753Z,5.20
2018-08-24T10:58:18.706Z,8.50
2018-08-24T11:00:11.642Z,4.90
2018-08-24T11:01:11.654Z,5.10
2018-08-24T11:03:04.612Z,6.90
2018-08-24T11:04:04.611Z,5.20
2018-08-24T11:05:57.550Z,4.80
2018-08-24T11:06:57.572Z,5.90
2018-08-24T11:08:50.520Z,5.10
2018-08-24T11:09:50.521Z,6.00
2018-08-24T11:11:43.455Z,4.70
2018-08-24T11:12:43.477Z,5.90
2018-08-24T11:14:36.428Z,5.40
2018-08-24T11:15:36.431Z,5.50
2018-08-24T11:17:29.358Z,4.90
2018-08-24T11:18:29.373Z,6.50
2018-08-24T11:20:22.331Z,5.70
2018-08-24T11:21:22.327Z,6.60
2018-08-24T11:23:15.285Z,4.60
2018-08-24T11:24:15.283Z,5.20
2018-08-24T11:26:08.231Z,4.80
2018-08-24T11:27:08.233Z,6.20
2018-08-24T11:29:01.196Z,4.50
2018-08-24T11:30:01.222Z,4.80
2018-08-24T11:31:54.130Z,5.40
2018-08-24T11:32:54.141Z,3.80
2018-08-24T11:34:47.097Z,4.40
2018-08-24T11:35:47.154Z,4.60
2018-08-24T11:37:40.026Z,4.70
2018-08-24T11:38:40.043Z,5.90
2018-08-24T11:40:32.997Z,4.30
2018-08-24T11:41:32.994Z,4.40
2018-08-24T11:43:25.948Z,6.60
2018-08-24T11:44:25.946Z,5.60
2018-08-24T11:46:18.889Z,7.00
2018-08-24T11:47:18.901Z,5.50
2018-08-24T11:49:11.856Z,4.70
2018-08-24T11:50:11.857Z,3.30
2018-08-24T11:52:04.791Z,4.20
2018-08-24T11:53:04.809Z,4.20
2018-08-24T11:54:57.766Z,3.90
2018-08-24T11:55:57.764Z,4.30
2018-08-24T11:57:50.713Z,5.60
2018-08-24T11:58:50.729Z,3.90
2018-08-24T12:00:43.692Z,4.00
2018-08-24T12:01:43.688Z,5.40
2018-08-24T12:03:36.644Z,4.80
2018-08-24T12:04:36.640Z,5.40
2018-08-24T12:06:29.578Z,4.30
2018-08-24T12:07:29.592Z,4.90
2018-08-24T12:09:22.548Z,4.30
2018-08-24T12:10:22.545Z,6.00
2018-08-24T12:12:15.511Z,5.30
2018-08-24T12:13:15.494Z,4.70
2018-08-24T12:15:08.446Z,4.50
2018-08-24T12:16:08.448Z,3.10
2018-08-24T12:18:01.376Z,4.50
2018-08-24T12:19:01.396Z,4.30
2018-08-24T12:20:54.354Z,5.60
2018-08-24T12:21:54.353Z,4.50
2018-08-24T12:23:47.312Z,4.90
2018-08-24T12:24:47.307Z,4.30
2018-08-24T12:26:40.238Z,3.90
2018-08-24T12:27:40.255Z,4.10
2018-08-24T12:29:33.208Z,3.30
2018-08-24T12:30:33.202Z,3.50
2018-08-24T12:32:26.139Z,4.80
2018-08-24T12:33:26.159Z,4.90
2018-08-24T12:35:19.118Z,4.40
2018-08-24T12:36:19.113Z,4.30
2018-08-24T12:38:12.128Z,3.40
2018-08-24T12:39:12.060Z,6.50
2018-08-24T12:41:05.061Z,3.00
2018-08-24T12:42:05.010Z,3.90
2018-08-24T12:43:57.962Z,3.60
2018-08-24T12:44:57.958Z,4.30
2018-08-24T12:46:50.894Z,4.50
2018-08-24T12:47:50.908Z,4.40
2018-08-24T12:49:43.862Z,5.00
2018-08-24T12:50:43.861Z,4.20
2018-08-24T12:52:36.803Z,5.90
2018-08-24T12:53:36.819Z,4.50
2018-08-24T12:55:29.765Z,4.00
2018-08-24T12:56:29.764Z,4.00
2018-08-24T12:58:22.697Z,3.70
2018-08-24T12:59:22.715Z,5.00
2018-08-24T13:01:15.673Z,3.50
2018-08-24T13:02:15.685Z,5.10
2018-08-24T13:04:08.627Z,3.00
2018-08-24T13:05:08.651Z,5.80
2018-08-24T13:07:01.557Z,4.90
2018-08-24T13:08:01.574Z,5.10
2018-08-24T13:09:54.527Z,5.30
2018-08-24T13:10:54.522Z,3.80
2018-08-24T13:12:47.459Z,4.40
2018-08-24T13:13:47.480Z,4.10
2018-08-24T13:15:40.436Z,3.10
2018-08-24T13:16:40.435Z,4.50
2018-08-24T13:18:33.369Z,6.20
2018-08-24T13:19:33.387Z,5.00
2018-08-24T13:21:26.408Z,3.90
2018-08-24T13:22:26.344Z,3.20
2018-08-24T13:24:19.329Z,4.60
2018-08-24T13:25:19.374Z,6.80
2018-08-24T13:27:12.308Z,4.60
2018-08-24T13:28:12.274Z,4.00
2018-08-24T13:30:05.226Z,3.60
2018-08-24T13:31:05.221Z,5.20
2018-08-24T13:32:58.164Z,3.90
2018-08-24T13:33:58.184Z,5.50
2018-08-24T13:35:51.137Z,4.40
2018-08-24T13:36:51.132Z,2.70
2018-08-24T13:38:44.065Z,4.80
2018-08-24T13:39:44.088Z,5.50
2018-08-24T13:41:37.040Z,5.20
2018-08-24T13:42:37.033Z,4.40
2018-08-24T13:44:29.990Z,4.00
2018-08-24T13:45:29.986Z,3.20
2018-08-24T13:47:22.923Z,5.60
2018-08-24T13:48:22.942Z,4.20
2018-08-24T13:50:15.933Z,7.90
2018-08-24T13:51:15.898Z,4.10
2018-08-24T13:53:08.829Z,4.80
2018-08-24T13:54:08.845Z,4.90
2018-08-24T13:56:01.818Z,4.80
2018-08-24T13:57:01.812Z,2.70
2018-08-24T13:58:54.745Z,4.50
2018-08-24T13:59:54.801Z,4.90
2018-08-24T14:01:47.716Z,2.40
2018-08-24T14:02:47.716Z,4.70
2018-08-24T14:04:40.675Z,3.60
2018-08-24T14:05:40.667Z,6.20
2018-08-24T14:07:33.606Z,3.50
2018-08-24T14:08:33.624Z,5.80
2018-08-24T14:10:26.580Z,4.60
2018-08-24T14:11:26.575Z,6.00
2018-08-24T14:13:19.518Z,6.60
2018-08-24T14:14:19.533Z,3.80
2018-08-24T14:16:12.490Z,5.30
2018-08-24T14:17:12.478Z,4.10
2018-08-24T14:19:05.419Z,3.20
2018-08-24T14:20:05.436Z,4.10
2018-08-24T14:21:58.384Z,3.80
2018-08-24T14:22:58.384Z,4.50
2018-08-24T14:24:51.335Z,4.10
2018-08-24T14:25:51.331Z,3.60
2018-08-24T14:27:44.268Z,5.50
2018-08-24T14:28:44.282Z,5.00
2018-08-24T14:30:37.235Z,3.30
2018-08-24T14:31:37.246Z,4.60
2018-08-24T14:33:30.163Z,3.70
2018-08-24T14:34:30.185Z,4.60
2018-08-24T14:36:23.131Z,4.20
2018-08-24T14:37:23.130Z,6.10
2018-08-24T14:39:16.094Z,6.20
2018-08-24T14:40:16.079Z,5.20
2018-08-24T14:42:09.004Z,2.90
2018-08-24T14:43:09.025Z,3.10
2018-08-24T14:45:01.983Z,4.40
2018-08-24T14:46:01.982Z,4.10
2018-08-24T14:47:54.915Z,2.70
2018-08-24T14:48:54.933Z,4.20
2018-08-24T14:50:47.880Z,4.90
2018-08-24T14:51:47.883Z,4.00
2018-08-24T14:53:40.844Z,3.30
2018-08-24T14:54:40.835Z,3.40
2018-08-24T14:56:33.774Z,4.20
2018-08-24T14:57:33.854Z,4.90
2018-08-24T14:59:26.740Z,6.80
2018-08-24T15:00:26.740Z,3.80
2018-08-24T15:02:19.671Z,6.70
2018-08-24T15:03:19.688Z,4.80
2018-08-24T15:05:12.641Z,5.10
2018-08-24T15:06:12.639Z,3.60
2018-08-24T15:08:05.575Z,5.50
2018-08-24T15:09:05.589Z,4.40
2018-08-24T15:10:58.540Z,4.40
2018-08-24T15:11:58.540Z,6.00
2018-08-24T15:13:51.488Z,5.40
2018-08-24T15:14:51.484Z,3.40
2018-08-24T15:16:44.427Z,3.50
2018-08-24T15:17:44.439Z,3.70
2018-08-24T15:19:37.390Z,5.70
2018-08-24T15:20:37.388Z,6.20
2018-08-24T15:22:30.335Z,5.40
2018-08-24T15:23:30.345Z,5.30
2018-08-24T15:25:23.298Z,5.60
2018-08-24T15:26:23.298Z,5.60
2018-08-24T15:28:16.225Z,4.30
2018-08-24T15:29:16.241Z,4.30
2018-08-24T15:31:09.190Z,4.60
2018-08-24T15:32:09.187Z,4.40
2018-08-24T15:34:02.144Z,4.90
2018-08-24T15:35:02.164Z,3.20
2018-08-24T15:36:55.071Z,4.20
2018-08-24T15:37:55.091Z,3.00
2018-08-24T15:39:48.058Z,4.00
2018-08-24T15:40:48.045Z,4.00
2018-08-24T15:42:40.983Z,5.90
2018-08-24T15:43:41.002Z,3.80
2018-08-24T15:45:33.989Z,3.50
2018-08-24T15:46:33.952Z,5.20
2018-08-24T15:48:26.884Z,3.60
2018-08-24T15:49:26.898Z,5.60
2018-08-24T15:51:19.868Z,4.10
2018-08-24T15:52:19.859Z,4.40
2018-08-24T15:54:12.812Z,5.20
2018-08-24T15:55:12.803Z,5.40
2018-08-24T15:57:05.738Z,4.00
2018-08-24T15:58:05.756Z,5.60
2018-08-24T15:59:58.723Z,3.70
2018-08-24T16:00:58.704Z,4.60
2018-08-24T16:02:51.639Z,3.90
2018-08-24T16:03:51.651Z,4.70
2018-08-24T16:05:44.612Z,4.10
2018-08-24T16:06:44.605Z,6.40
2018-08-24T16:08:37.535Z,6.00
2018-08-24T16:09:37.546Z,7.70
2018-08-24T16:11:30.508Z,6.20
2018-08-24T16:12:30.499Z,5.10
2018-08-24T16:14:23.447Z,4.50
2018-08-24T16:15:23.442Z,5.20
2018-08-24T16:17:16.378Z,4.80
2018-08-24T16:18:16.396Z,2.20
2018-08-24T16:20:09.340Z,4.50
2018-08-24T16:21:09.342Z,4.20
2018-08-24T16:23:02.271Z,4.00
2018-08-24T16:24:02.293Z,6.70
2018-08-24T16:25:55.235Z,4.80
2018-08-24T16:26:55.242Z,4.30
2018-08-24T16:28:48.177Z,4.70
2018-08-24T16:29:48.188Z,4.60
2018-08-24T16:31:41.140Z,3.00
2018-08-24T16:32:41.143Z,4.60
2018-08-24T16:34:34.081Z,7.10
2018-08-24T16:35:34.078Z,5.30
2018-08-24T16:37:27.011Z,6.70
2018-08-24T16:38:27.025Z,5.80
2018-08-24T16:40:19.977Z,5.30
2018-08-24T16:41:19.974Z,3.80
2018-08-24T16:43:12.905Z,4.90
2018-08-24T16:44:12.920Z,5.20
2018-08-24T16:46:05.873Z,4.60
2018-08-24T16:47:05.868Z,3.70
2018-08-24T16:48:58.797Z,4.30
2018-08-24T16:49:58.811Z,6.00
2018-08-24T16:51:51.764Z,3.90
2018-08-24T16:52:51.758Z,3.60
2018-08-24T16:54:44.713Z,4.50
2018-08-24T16:55:44.730Z,3.70
2018-08-24T16:57:37.637Z,4.70
2018-08-24T16:58:37.652Z,4.60
2018-08-24T17:00:30.601Z,4.30
2018-08-24T17:01:30.596Z,3.80
2018-08-24T17:03:23.532Z,4.80
2018-08-24T17:04:23.547Z,4.90
2018-08-24T17:06:16.500Z,7.00
2018-08-24T17:07:16.495Z,5.00
2018-08-24T17:09:09.420Z,5.60
2018-08-24T17:10:09.438Z,6.50
2018-08-24T17:12:02.402Z,6.80
2018-08-24T17:13:02.498Z,4.20
2018-08-24T17:14:55.345Z,6.30
2018-08-24T17:15:55.341Z,4.40
2018-08-24T17:17:48.267Z,3.90
2018-08-24T17:18:48.286Z,6.60
2018-08-24T17:20:41.233Z,5.30
2018-08-24T17:21:41.237Z,4.80
2018-08-24T17:23:34.162Z,3.40
2018-08-24T17:24:34.174Z,4.60
2018-08-24T17:26:27.128Z,5.80
2018-08-24T17:27:27.121Z,4.80
2018-08-24T17:29:20.054Z,4.60
2018-08-24T17:30:20.080Z,4.60
2018-08-24T17:32:13.014Z,5.70
2018-08-24T17:33:13.010Z,5.30
2018-08-24T17:35:05.965Z,7.10
2018-08-24T17:36:05.961Z,5.50
2018-08-24T17:37:58.891Z,4.50
2018-08-24T17:38:58.903Z,3.60
2018-08-24T17:40:51.849Z,6.10
2018-08-24T17:41:51.926Z,7.50
2018-08-24T17:43:44.781Z,5.20
2018-08-24T17:44:44.795Z,4.60
2018-08-24T17:46:37.741Z,4.00
2018-08-24T17:47:37.738Z,3.60
2018-08-24T17:49:30.666Z,6.50
2018-08-24T17:50:30.681Z,5.80
2018-08-24T17:52:23.653Z,6.20
2018-08-24T17:53:23.628Z,4.50
2018-08-24T17:55:16.580Z,3.40
2018-08-24T17:56:16.577Z,6.90
2018-08-24T17:58:09.502Z,6.70
2018-08-24T17:59:09.516Z,8.10
2018-08-24T18:01:02.463Z,6.30
2018-08-24T18:02:02.464Z,6.70
2018-08-24T18:03:55.445Z,5.00
2018-08-24T18:04:55.402Z,4.90
2018-08-24T18:06:48.352Z,6.30
2018-08-24T18:07:48.346Z,7.90
2018-08-24T18:09:41.276Z,5.70
2018-08-24T18:10:41.291Z,6.50
2018-08-24T18:12:34.235Z,3.80
2018-08-24T18:13:34.236Z,4.70
2018-08-24T18:15:27.195Z,4.00
2018-08-24T18:16:27.192Z,4.60
2018-08-24T18:18:20.121Z,4.40
2018-08-24T18:19:20.138Z,6.40
2018-08-24T18:21:13.100Z,5.00
2018-08-24T18:22:13.094Z,6.90
2018-08-24T18:24:06.016Z,8.80
2018-08-24T18:25:06.033Z,3.70
2018-08-24T18:26:58.977Z,3.90
2018-08-24T18:27:58.972Z,5.00
2018-08-24T18:29:51.918Z,2.60
2018-08-24T18:30:51.917Z,5.00
2018-08-24T18:32:44.868Z,5.20
2018-08-24T18:33:44.861Z,4.00
2018-08-24T18:35:37.814Z,5.20
2018-08-24T18:36:37.858Z,7.70
2018-08-24T18:38:30.734Z,6.50
2018-08-24T18:39:30.763Z,4.00
2018-08-24T18:41:23.696Z,7.50
2018-08-24T18:42:23.696Z,5.10
2018-08-24T18:44:16.628Z,4.10
2018-08-24T18:45:16.640Z,4.20
2018-08-24T18:47:09.592Z,5.30
2018-08-24T18:48:09.583Z,4.70
2018-08-24T18:50:02.519Z,7.30
2018-08-24T18:51:02.539Z,4.50
2018-08-24T18:52:55.486Z,5.10
2018-08-24T18:53:55.476Z,5.60
2018-08-24T18:55:48.446Z,5.10
2018-08-24T18:56:48.425Z,6.60
2018-08-24T18:58:41.350Z,5.50
2018-08-24T18:59:41.367Z,4.90
2018-08-24T19:01:34.312Z,4.70
2018-08-24T19:02:34.308Z,3.20
2018-08-24T19:04:27.236Z,4.00
2018-08-24T19:05:27.319Z,6.70
2018-08-24T19:07:20.196Z,4.70
2018-08-24T19:08:20.187Z,4.10
2018-08-24T19:10:13.124Z,3.20
2018-08-24T19:11:13.141Z,4.80
2018-08-24T19:13:06.089Z,6.40
2018-08-24T19:14:06.080Z,3.90
2018-08-24T19:15:59.043Z,4.70
2018-08-24T19:16:59.023Z,4.80
2018-08-24T19:18:51.957Z,5.80
2018-08-24T19:19:51.969Z,4.00
2018-08-24T19:21:44.917Z,3.40
2018-08-24T19:22:44.954Z,5.20
2018-08-24T19:24:37.892Z,3.90
2018-08-24T19:25:37.854Z,4.80
2018-08-24T19:27:30.797Z,5.40